createdAt,value
2019-02-09T00:01:53.743Z,7.17
2019-02-09T00:04:24.357Z,4.50
2019-02-09T00:07:05.933Z,5.17
2019-02-09T00:09:48.095Z,7.20
2019-02-09T00:15:55.958Z,4.83
2019-02-09T00:18:37.910Z,7.27
2019-02-09T00:21:20.186Z,8.70
2019-02-09T00:24:02.483Z,5.73
2019-02-09T00:26:45.764Z,4.27
2019-02-09T00:29:16.964Z,6.83
2019-02-09T00:32:06.631Z,3.60
2019-02-09T00:34:55.997Z,4.60
2019-02-09T00:37:38.560Z,6.00
2019-02-09T00:40:20.269Z,5.23
2019-02-09T00:46:26.394Z,3.40
2019-02-09T00:49:08.824Z,5.27
2019-02-09T00:51:51.052Z,5.57
2019-02-09T00:54:34.125Z,4.60
2019-02-09T00:57:16.083Z,4.57
2019-02-09T00:59:57.983Z,3.77
2019-02-09T01:05:49.324Z,5.53
2019-02-09T01:08:31.561Z,4.30
2019-02-09T01:11:13.353Z,6.37
2019-02-09T01:13:55.573Z,3.67
2019-02-09T01:16:43.763Z,5.30
2019-02-09T01:19:25.623Z,5.73
2019-02-09T01:22:08.172Z,8.00
2019-02-09T01:24:56.149Z,5.50
2019-02-09T01:27:38.153Z,4.33
2019-02-09T01:30:20.478Z,6.73
2019-02-09T01:33:02.584Z,5.23
2019-02-09T01:35:44.772Z,6.03
2019-02-09T01:38:26.571Z,7.23
2019-02-09T01:41:08.840Z,6.60
2019-02-09T01:43:50.957Z,8.90
2019-02-09T01:46:33.030Z,6.13
2019-02-09T01:49:03.463Z,4.43
2019-02-09T01:51:52.886Z,6.17
2019-02-09T01:54:35.004Z,6.90
2019-02-09T01:57:15.374Z,5.37
2019-02-09T01:59:57.831Z,4.33
2019-02-09T02:02:40.183Z,5.33
2019-02-09T02:05:23.016Z,10.00
2019-02-09T02:08:06.140Z,7.70
2019-02-09T02:10:48.255Z,4.57
2019-02-09T02:13:30.483Z,3.67
2019-02-09T02:16:00.737Z,4.83
2019-02-09T02:18:42.740Z,4.47
2019-02-09T02:21:24.850Z,5.30
2019-02-09T02:24:07.189Z,6.13
2019-02-09T02:26:56.214Z,5.53
2019-02-09T02:29:38.429Z,4.70
2019-02-09T02:32:20.607Z,4.77
2019-02-09T02:35:03.016Z,4.80
2019-02-09T02:37:33.278Z,6.33
2019-02-09T02:40:15.656Z,5.07
2019-02-09T02:42:58.635Z,5.03
2019-02-09T02:45:40.858Z,4.30
2019-02-09T02:48:22.937Z,4.93
2019-02-09T02:51:05.091Z,7.67
2019-02-09T02:53:47.147Z,5.77
2019-02-09T02:56:29.206Z,9.17
2019-02-09T02:59:11.282Z,14.70
2019-02-09T03:01:53.423Z,6.33
2019-02-09T03:07:41.344Z,6.17
2019-02-09T03:10:23.579Z,4.97
2019-02-09T03:13:05.606Z,4.17
2019-02-09T03:15:47.853Z,5.00
2019-02-09T03:18:36.041Z,3.60
2019-02-09T03:21:06.344Z,2.63
2019-02-09T03:23:50.453Z,4.47
2019-02-09T03:26:32.582Z,4.97
2019-02-09T03:29:14.449Z,3.60
2019-02-09T03:31:56.556Z,3.50
2019-02-09T03:34:38.277Z,4.73
2019-02-09T03:37:20.546Z,4.90
2019-02-09T03:40:02.599Z,3.33
2019-02-09T03:42:44.840Z,3.87
2019-02-09T03:45:26.811Z,5.20
2019-02-09T03:48:08.722Z,2.90
2019-02-09T03:50:50.957Z,4.73
2019-02-09T03:53:33.073Z,4.00
2019-02-09T03:56:15.419Z,3.90
2019-02-09T03:59:03.840Z,5.73
2019-02-09T04:01:46.043Z,5.93
2019-02-09T04:04:28.255Z,3.97
2019-02-09T04:06:58.645Z,4.70
2019-02-09T04:09:47.985Z,5.90
2019-02-09T04:15:28.269Z,3.87
2019-02-09T04:21:35.576Z,5.63
2019-02-09T04:24:17.573Z,8.83
2019-02-09T04:30:05.253Z,15.53
2019-02-09T04:32:47.138Z,12.70
2019-02-09T04:35:29.237Z,25.00
2019-02-09T04:38:11.119Z,9.47
2019-02-09T04:40:52.976Z,16.53
2019-02-09T04:43:34.573Z,8.00
2019-02-09T04:46:16.550Z,6.90
2019-02-09T04:48:58.534Z,15.03
2019-02-09T04:51:40.846Z,13.33
2019-02-09T04:54:22.948Z,3.83
2019-02-09T04:57:04.862Z,7.93
2019-02-09T05:00:05.829Z,4.70
2019-02-09T05:02:36.117Z,5.07
2019-02-09T05:05:18.157Z,6.67
2019-02-09T05:08:00.246Z,5.17
2019-02-09T05:13:35.605Z,4.90
2019-02-09T05:16:17.633Z,5.90
2019-02-09T05:18:59.845Z,6.60
2019-02-09T05:21:41.924Z,6.03
2019-02-09T05:24:24.141Z,3.80
2019-02-09T05:27:06.336Z,4.27
2019-02-09T05:32:56.563Z,3.40
2019-02-09T05:35:40.533Z,2.23
2019-02-09T05:38:22.572Z,2.03
2019-02-09T05:41:04.746Z,2.17
2019-02-09T05:43:46.777Z,2.83
2019-02-09T05:46:28.939Z,3.27
2019-02-09T05:49:11.298Z,4.27
2019-02-09T05:51:53.242Z,2.73
2019-02-09T05:54:35.462Z,5.20
2019-02-09T05:57:17.578Z,5.37
2019-02-09T05:59:59.827Z,3.77
2019-02-09T06:02:41.984Z,4.30
2019-02-09T06:05:23.884Z,6.57
2019-02-09T06:08:05.805Z,4.13
2019-02-09T06:10:47.966Z,4.57
2019-02-09T06:13:18.245Z,8.07
2019-02-09T06:16:00.331Z,4.37
2019-02-09T06:18:42.285Z,4.47
2019-02-09T06:21:24.196Z,4.50
2019-02-09T06:24:06.006Z,5.67
2019-02-09T06:26:36.279Z,5.17
2019-02-09T06:35:58.391Z,3.53
2019-02-09T06:38:40.750Z,4.23
2019-02-09T06:41:22.436Z,4.80
2019-02-09T06:44:04.238Z,4.13
2019-02-09T06:50:11.376Z,4.13
2019-02-09T06:52:53.084Z,6.00
2019-02-09T06:58:40.667Z,5.43
2019-02-09T07:01:22.630Z,4.30
2019-02-09T07:04:04.621Z,6.97
2019-02-09T07:06:46.740Z,5.50
2019-02-09T07:09:28.990Z,6.00
2019-02-09T07:12:10.970Z,5.13
2019-02-09T07:18:01.119Z,5.43
2019-02-09T07:20:43.739Z,9.93
2019-02-09T07:23:25.411Z,12.73
2019-02-09T07:25:57.183Z,18.47
2019-02-09T07:28:46.766Z,10.13
2019-02-09T07:31:28.507Z,14.57
2019-02-09T07:34:11.048Z,17.40
2019-02-09T07:36:55.438Z,25.33
2019-02-09T07:39:39.478Z,14.43
2019-02-09T07:42:41.327Z,20.93
2019-02-09T07:45:27.865Z,17.90
2019-02-09T07:48:10.835Z,6.10
2019-02-09T07:50:53.438Z,6.73
2019-02-09T07:53:35.450Z,10.37
2019-02-09T07:56:17.355Z,9.57
2019-02-09T07:58:59.999Z,12.07
2019-02-09T08:01:42.672Z,6.47
2019-02-09T08:04:24.438Z,7.90
2019-02-09T08:10:19.577Z,6.40
2019-02-09T08:13:01.424Z,5.47
2019-02-09T08:15:44.612Z,6.83
2019-02-09T08:21:32.087Z,6.80
2019-02-09T08:24:14.002Z,4.63
2019-02-09T08:30:21.505Z,5.80
2019-02-09T08:33:03.277Z,6.27
2019-02-09T08:35:45.593Z,10.30
2019-02-09T08:38:28.099Z,6.67
2019-02-09T08:41:09.750Z,6.77
2019-02-09T08:43:52.144Z,5.73
2019-02-09T08:49:40.580Z,7.77
2019-02-09T08:52:12.505Z,3.40
2019-02-09T08:54:55.050Z,8.57
2019-02-09T08:57:37.211Z,4.23
2019-02-09T09:00:19.323Z,6.07
2019-02-09T09:03:01.266Z,5.83
2019-02-09T09:05:43.277Z,8.93
2019-02-09T09:08:25.530Z,4.30
2019-02-09T09:11:07.457Z,3.13
2019-02-09T09:13:49.277Z,11.67
2019-02-09T09:16:31.540Z,6.47
2019-02-09T09:19:13.482Z,5.60
2019-02-09T09:21:56.343Z,6.30
2019-02-09T09:24:39.321Z,7.43
2019-02-09T09:27:21.178Z,6.40
2019-02-09T09:30:03.504Z,8.97
2019-02-09T09:32:46.090Z,6.70
2019-02-09T09:35:28.019Z,10.10
2019-02-09T09:38:10.831Z,14.93
2019-02-09T09:40:52.698Z,7.40
2019-02-09T09:43:34.741Z,9.03
2019-02-09T09:46:16.482Z,11.37
2019-02-09T09:48:58.561Z,10.23
2019-02-09T09:55:05.926Z,8.37
2019-02-09T09:57:47.822Z,13.57
2019-02-09T10:00:29.691Z,12.83
2019-02-09T10:03:12.145Z,7.27
2019-02-09T10:05:54.219Z,9.63
2019-02-09T10:08:36.366Z,8.77
2019-02-09T10:11:20.191Z,8.13
2019-02-09T10:17:33.566Z,6.63
2019-02-09T10:20:22.582Z,8.00
2019-02-09T10:23:04.634Z,7.77
2019-02-09T10:25:47.042Z,5.03
2019-02-09T10:28:17.328Z,10.10
2019-02-09T10:30:59.479Z,8.53
2019-02-09T10:33:41.381Z,9.33
2019-02-09T10:36:23.373Z,4.97
2019-02-09T10:39:05.418Z,8.63
2019-02-09T10:41:48.776Z,11.10
2019-02-09T10:44:30.953Z,13.60
2019-02-09T10:47:18.760Z,9.67
2019-02-09T10:50:03.459Z,9.27
2019-02-09T10:52:45.198Z,8.17
2019-02-09T10:55:16.765Z,12.00
2019-02-09T10:58:06.692Z,10.70
2019-02-09T11:00:48.858Z,13.40
2019-02-09T11:03:31.924Z,8.13
2019-02-09T11:06:15.306Z,10.10
2019-02-09T11:08:57.990Z,8.83
2019-02-09T11:11:40.910Z,11.17
2019-02-09T11:14:25.305Z,13.23
2019-02-09T11:17:08.713Z,8.90
2019-02-09T11:19:50.995Z,10.17
2019-02-09T11:22:36.334Z,8.77
2019-02-09T11:25:19.621Z,10.00
2019-02-09T11:30:52.706Z,12.10
2019-02-09T11:36:58.784Z,9.40
2019-02-09T11:39:48.167Z,17.87
2019-02-09T11:42:48.931Z,15.90
2019-02-09T11:45:37.741Z,16.57
2019-02-09T11:51:18.707Z,12.53
2019-02-09T11:54:02.050Z,11.43
2019-02-09T11:56:44.184Z,7.77
2019-02-09T11:59:26.762Z,11.97
2019-02-09T12:02:08.846Z,11.10
2019-02-09T12:04:51.075Z,10.67
2019-02-09T12:07:33.359Z,10.90
2019-02-09T12:10:15.262Z,14.20
2019-02-09T12:12:57.530Z,9.30
2019-02-09T12:18:48.544Z,12.50
2019-02-09T12:24:56.015Z,12.57
2019-02-09T12:27:26.312Z,9.83
2019-02-09T12:30:17.897Z,6.10
2019-02-09T12:33:00.164Z,7.97
2019-02-09T12:35:43.733Z,7.53
2019-02-09T12:41:50.874Z,6.97
2019-02-09T12:44:32.891Z,10.38
2019-02-09T12:47:14.643Z,11.63
2019-02-09T12:49:56.927Z,9.73
2019-02-09T12:52:46.219Z,9.70
2019-02-09T12:55:27.777Z,10.10
2019-02-09T13:01:19.870Z,8.40
2019-02-09T13:04:01.823Z,7.87
2019-02-09T13:09:32.848Z,12.67
2019-02-09T13:12:14.744Z,11.27
2019-02-09T13:18:07.180Z,8.03
2019-02-09T13:23:38.336Z,10.57
2019-02-09T13:26:20.203Z,11.13
2019-02-09T13:29:02.086Z,6.20
2019-02-09T13:34:50.911Z,8.53
2019-02-09T13:40:21.860Z,7.70
2019-02-09T13:43:03.908Z,9.73
2019-02-09T13:45:46.130Z,10.33
2019-02-09T13:48:28.325Z,12.20
2019-02-09T13:51:10.625Z,9.40
2019-02-09T13:57:00.841Z,7.87
2019-02-09T13:59:43.588Z,10.10
2019-02-09T14:02:25.727Z,13.23
2019-02-09T14:05:08.153Z,12.30
2019-02-09T14:07:50.526Z,13.17
2019-02-09T14:10:32.997Z,15.73
2019-02-09T14:13:15.000Z,13.70
2019-02-09T14:15:58.234Z,12.20
2019-02-09T14:18:40.302Z,11.73
2019-02-09T14:21:10.718Z,9.67
2019-02-09T14:24:00.105Z,11.70
2019-02-09T14:26:42.586Z,11.67
2019-02-09T14:29:24.639Z,10.20
2019-02-09T14:32:12.763Z,17.20
2019-02-09T14:34:58.164Z,18.37
2019-02-09T14:37:39.928Z,35.43
2019-02-09T14:43:29.985Z,27.33
2019-02-09T14:46:11.648Z,7.40
2019-02-09T14:48:59.695Z,9.40
2019-02-09T14:51:41.612Z,7.93
2019-02-09T14:54:23.660Z,11.17
2019-02-09T14:57:05.917Z,9.13
2019-02-09T14:59:48.790Z,8.73
2019-02-09T15:02:34.195Z,10.43
2019-02-09T15:05:17.174Z,5.77
2019-02-09T15:08:01.940Z,8.27
2019-02-09T15:10:44.819Z,10.13
2019-02-09T15:13:26.998Z,6.47
2019-02-09T15:16:09.709Z,7.70
2019-02-09T15:18:52.685Z,8.67
2019-02-09T15:21:44.388Z,11.70
2019-02-09T15:24:28.465Z,12.57
2019-02-09T15:27:24.105Z,7.57
2019-02-09T15:30:10.329Z,11.30
2019-02-09T15:32:54.025Z,5.03
2019-02-09T15:36:00.657Z,10.80
2019-02-09T15:38:48.171Z,13.07
2019-02-09T15:41:33.191Z,11.23
2019-02-09T15:44:17.597Z,7.70
2019-02-09T15:47:02.065Z,6.20
2019-02-09T15:49:48.320Z,7.40
2019-02-09T15:52:34.813Z,18.27
2019-02-09T15:55:37.470Z,18.57
2019-02-09T15:58:08.993Z,13.73
2019-02-09T16:00:51.546Z,22.50
2019-02-09T16:03:32.669Z,14.97
2019-02-09T16:06:17.863Z,10.23
2019-02-09T16:09:00.190Z,7.57
2019-02-09T16:11:43.446Z,8.47
2019-02-09T16:17:12.367Z,7.07
2019-02-09T16:19:54.150Z,14.23
2019-02-09T16:26:01.704Z,8.67
2019-02-09T16:28:45.864Z,9.67
2019-02-09T16:31:33.719Z,9.03
2019-02-09T16:34:17.181Z,5.33
2019-02-09T16:37:04.892Z,6.83
2019-02-09T16:39:47.333Z,8.57
2019-02-09T16:42:31.550Z,7.37
2019-02-09T16:45:13.386Z,8.47
2019-02-09T16:47:55.421Z,16.27
2019-02-09T16:54:02.325Z,7.70
2019-02-09T16:56:44.451Z,7.63
2019-02-09T16:59:27.066Z,8.07
2019-02-09T17:02:08.199Z,10.33
2019-02-09T17:04:50.619Z,8.60
2019-02-09T17:07:39.266Z,10.17
2019-02-09T17:10:23.504Z,12.20
2019-02-09T17:13:06.283Z,9.87
2019-02-09T17:15:48.146Z,9.20
2019-02-09T17:18:30.087Z,9.70
2019-02-09T17:21:12.167Z,11.83
2019-02-09T17:23:54.148Z,13.43
2019-02-09T17:26:36.103Z,9.10
2019-02-09T17:29:17.819Z,10.63
2019-02-09T17:32:00.348Z,11.73
2019-02-09T17:38:08.093Z,12.70
2019-02-09T17:40:50.185Z,11.87
2019-02-09T17:43:32.346Z,12.47
2019-02-09T17:46:14.437Z,10.00
2019-02-09T17:49:15.504Z,9.83
2019-02-09T17:51:57.558Z,9.07
2019-02-09T17:54:39.749Z,9.17
2019-02-09T17:57:21.588Z,15.10
2019-02-09T18:00:03.801Z,17.57
2019-02-09T18:02:46.122Z,11.40
2019-02-09T18:08:36.630Z,11.40
2019-02-09T18:11:18.659Z,9.57
2019-02-09T18:14:00.874Z,9.70
2019-02-09T18:16:42.681Z,12.63
2019-02-09T18:22:50.390Z,6.77
2019-02-09T18:25:32.853Z,7.70
2019-02-09T18:28:15.050Z,10.67
2019-02-09T18:30:57.211Z,5.57
2019-02-09T18:33:39.237Z,16.03
2019-02-09T18:36:20.963Z,9.00
2019-02-09T18:39:05.916Z,13.23
2019-02-09T18:41:47.977Z,10.47
2019-02-09T18:44:30.806Z,13.43
2019-02-09T18:47:02.445Z,11.13
2019-02-09T18:49:43.918Z,8.10
2019-02-09T18:52:27.911Z,12.60
2019-02-09T18:58:35.382Z,9.37
2019-02-09T19:01:18.328Z,13.50
2019-02-09T19:04:01.315Z,11.90
2019-02-09T19:06:44.303Z,10.43
2019-02-09T19:09:26.963Z,9.47
2019-02-09T19:12:10.328Z,14.43
2019-02-09T19:14:54.165Z,11.83
2019-02-09T19:17:38.308Z,15.27
2019-02-09T19:20:21.118Z,20.37
2019-02-09T19:23:02.715Z,24.70
2019-02-09T19:25:45.449Z,14.50
2019-02-09T19:28:29.859Z,9.10
2019-02-09T19:31:13.188Z,9.37
2019-02-09T19:33:55.042Z,8.20
2019-02-09T19:36:27.351Z,10.57
2019-02-09T19:39:17.401Z,10.80
2019-02-09T19:42:03.926Z,13.43
2019-02-09T19:47:59.267Z,8.77
2019-02-09T19:50:43.702Z,12.47
2019-02-09T19:53:25.373Z,12.50
2019-02-09T19:56:08.085Z,10.60
2019-02-09T19:58:50.710Z,13.60
2019-02-09T20:01:32.798Z,7.53
2019-02-09T20:04:14.830Z,19.27
2019-02-09T20:06:56.694Z,39.93
2019-02-09T20:09:38.917Z,19.50
2019-02-09T20:12:22.021Z,14.60
2019-02-09T20:15:04.761Z,12.13
2019-02-09T20:17:46.315Z,13.33
2019-02-09T20:20:28.640Z,13.37
2019-02-09T20:23:11.629Z,14.77
2019-02-09T20:25:54.673Z,11.17
2019-02-09T20:28:37.881Z,8.50
2019-02-09T20:31:20.331Z,11.63
2019-02-09T20:34:02.014Z,10.33
2019-02-09T20:36:48.574Z,12.97
2019-02-09T20:39:38.480Z,11.03
2019-02-09T20:42:21.349Z,10.90
2019-02-09T20:45:04.610Z,16.63
2019-02-09T20:47:50.127Z,15.20
2019-02-09T20:50:31.574Z,12.50
2019-02-09T20:53:14.157Z,11.87
2019-02-09T20:56:15.777Z,11.17
2019-02-09T20:58:58.139Z,15.53
2019-02-09T21:01:40.257Z,10.97
2019-02-09T21:04:20.979Z,11.47
2019-02-09T21:07:03.964Z,9.40
2019-02-09T21:09:52.779Z,14.37
2019-02-09T21:12:36.180Z,12.97
2019-02-09T21:18:09.964Z,10.13
2019-02-09T21:20:54.719Z,8.80
2019-02-09T21:29:59.394Z,13.37
2019-02-09T21:32:49.209Z,9.73
2019-02-09T21:35:43.803Z,12.23
2019-02-09T21:38:19.641Z,10.67
2019-02-09T21:41:02.089Z,16.47
2019-02-09T21:43:46.542Z,11.43
2019-02-09T21:46:31.969Z,13.50
2019-02-09T21:52:39.436Z,11.70
